Flight Track Log - Related Links

Times and Time Zones

All times are in EDT time to prevent confusion due to time zone crossing. See the LOF3416 flight status page for this flight to view local times or setup timezone preferences in your user account.


Time Position Orientation Groundspeed Altitude Reporting Facility
EDT Latitude Longitude Course Direction KTS MPH feet Rate Location/Type
Sun 10:16:55 PM 38.9167 -77.4500 303° West 173 199 1,700  Level Potomac TRACON
Sun 10:17:55 PM 38.8667 -77.5000 218° Southwest 218 251 4,000 2,284 Climbing Potomac TRACON
Sun 10:19:00 PM 38.8812 -77.8153 260° West  Level FlightAware Approximate
Sun 10:20:00 PM 38.8743 -77.9396 293° West  Level FlightAware Approximate
Sun 10:20:12 PM 38.7794 -77.6261 228° Southwest 229 264 9,200  Level Washington Center
Sun 10:21:00 PM 38.9069 -78.0606 288° West  Level FlightAware Approximate
Sun 10:21:12 PM 38.7758 -77.7192 267° West 247 284 11,300  Level Washington Center
Sun 10:22:00 PM 38.9404 -78.1808 303° West  Level FlightAware Approximate
Sun 10:22:12 PM 38.8200 -77.8164 300° West 247 284 13,000  Level Washington Center
Sun 10:23:12 PM 38.8658 -77.9164 301° West 298 343 14,000 1,250 Climbing Washington Center
Sun 10:24:12 PM 38.9011 -78.0297 292° West 325 374 15,500 1,500 Climbing Washington Center
Sun 10:25:12 PM 38.9383 -78.1483 292° West 346 398 17,000 1,600 Climbing Washington Center
Sun 10:26:12 PM 38.9628 -78.2667 285° West 352 405 18,700 1,850 Climbing Washington Center
Sun 10:27:12 PM 38.9664 -78.3869 272° West 342 394 20,700 1,750 Climbing Washington Center
Sun 10:28:12 PM 38.9678 -78.5072 271° West 336 387 22,200 1,450 Climbing Washington Center
Sun 10:29:12 PM 38.9711 -78.6275 272° West 336 387 23,600 1,400 Climbing Washington Center
Sun 10:30:12 PM 38.9742 -78.7531 272° West 346 398 25,000 1,350 Climbing Washington Center
Sun 10:31:12 PM 38.9769 -78.8786 272° West 352 405 26,300 1,150 Climbing Washington Center
Sun 10:32:12 PM 38.9797 -79.0044 272° West 352 405 27,300 850 Climbing Washington Center
Sun 10:33:12 PM 38.9864 -79.1303 274° West 352 405 28,000 350 Climbing Washington Center
Sun 10:34:12 PM 38.9947 -79.2667 275° West 369 425 28,000  Level Washington Center
Sun 10:35:12 PM 39.0072 -79.4064 277° West 381 438 28,000  Level Washington Center
Sun 10:36:12 PM 39.0192 -79.5511 276° West 398 458 28,000  Level Washington Center
Sun 10:37:12 PM 39.0350 -79.7017 278° West 417 480 28,000  Level Washington Center
Sun 10:38:12 PM 39.0453 -79.8253 276° West 410 472 28,000  Level Washington Center
Sun 10:39:12 PM 39.0567 -79.9703 276° West 405 466 28,000  Level Washington Center
Sun 10:40:12 PM 39.0681 -80.1181 276° West 411 473 28,000  Level Washington Center
Sun 10:41:04 PM 39.0706 -80.2375 272° West 411 473 28,000  Level Indianapolis Center
Sun 10:42:05 PM 39.0817 -80.3867 276° West 417 480 28,000  Level Indianapolis Center
Sun 10:43:06 PM 39.0922 -80.5353 275° West 418 481 28,000  Level Indianapolis Center
Sun 10:44:06 PM 39.1089 -80.6839 278° West 421 484 28,000  Level Indianapolis Center
Sun 10:45:07 PM 39.1297 -80.8631 279° West 423 487 28,000  Level Indianapolis Center
Sun 10:46:08 PM 39.1469 -81.0114 279° West 422 486 28,000  Level Indianapolis Center
Sun 10:47:08 PM 39.1642 -81.1631 278° West 428 493 28,000  Level Indianapolis Center
Sun 10:48:09 PM 39.1811 -81.3133 278° West 427 491 28,000  Level Indianapolis Center
Sun 10:49:10 PM 39.1989 -81.4639 279° West 429 494 28,000  Level Indianapolis Center
Sun 10:50:10 PM 39.2147 -81.6156 278° West 429 494 28,000  Level Indianapolis Center
Sun 10:51:11 PM 39.2319 -81.7667 278° West 429 494 28,000  Level Indianapolis Center
Sun 10:52:12 PM 39.2481 -81.9189 278° West 430 495 28,000  Level Indianapolis Center
Sun 10:53:12 PM 39.2636 -82.0717 278° West 432 497 28,000  Level Indianapolis Center
Sun 10:54:13 PM 39.2797 -82.2244 278° West 432 497 28,000 -492 Level Indianapolis Center
Sun 10:55:14 PM 39.2958 -82.3764 278° West 431 496 27,000 -1,289 Descending Indianapolis Center
Sun 10:56:14 PM 39.3119 -82.5400 277° West 438 504 25,400 -1,488 Descending Indianapolis Center
Sun 10:57:15 PM 39.3272 -82.6956 277° West 435 501 24,000 -1,426 Descending Indianapolis Center
Sun 10:58:16 PM 39.3431 -82.8489 278° West 427 491 22,500 -1,686 Descending Indianapolis Center
Sun 10:59:16 PM 39.3569 -82.9964 277° West 413 475 20,600 -1,918 Descending Indianapolis Center
Sun 11:00:18 PM 39.3703 -83.1378 277° West 395 455 18,600 -2,168 Descending Indianapolis Center
Sun 11:01:15 PM 39.3842 -83.2828 277° West 382 440 16,300 -2,390 Descending Indianapolis Center
Sun 11:02:16 PM 39.3975 -83.4192 277° West 380 437 13,900 -2,352 Descending Indianapolis Center
Sun 11:03:20 PM 39.4422 -83.5311 297° West 376 433 11,400 -1,934 Descending Indianapolis Center
Sun 11:04:17 PM 39.5097 -83.6303 311° West 356 410 10,000 -712 Descending Indianapolis Center
Sun 11:05:18 PM 39.5689 -83.7375 306° West 334 384 10,000 -496 Level Indianapolis Center
Sun 11:06:18 PM 39.6081 -83.8292 299° West 293 337 9,000 -1,091 Descending Indianapolis Center
Sun 11:07:19 PM 39.6472 -83.9183 300° West 285 328 7,800 -1,392 Descending Indianapolis Center
Sun 11:08:23 PM 39.6867 -84.0053 301° West 283 326 6,100 -1,339 Descending Indianapolis Center
Sun 11:09:20 PM 39.7242 -84.0908 300° West 265 305 5,100 -1,017 Descending Indianapolis Center
Sun 11:10:21 PM 39.7600 -84.1689 301° West 259 298 4,100 -1,091 Descending Indianapolis Center
Sun 11:11:21 PM 39.7956 -84.2469 301° West 243 280 2,900 -1,200 Descending Indianapolis Center

Login

Don't have an account? Register now (free) for customized features, flight alerts, and more!